Time;durP1;ratioP1;P1;durP2;ratioP2;P2;SDS_P1;SDS_P2;PMS_P1;PMS_P2;Temp;Humidity;BMP_temperature;BMP_pressure;BME280_temperature;BME280_humidity;BME280_pressure;Samples;Min_cycle;Max_cycle;Signal;HPM_P1;HPM_P2
2022/09/17 00:00:42;;;;;;;708.00;545.67;;;15.60;99.90;;;;;;4958470;28;20209;-76
2022/09/17 00:03:10;;;;;;;708.03;549.30;;;15.60;99.90;;;;;;4967528;28;20344;-76
2022/09/17 00:05:37;;;;;;;707.38;538.53;;;15.60;99.90;;;;;;4969182;28;20666;-76
2022/09/17 00:08:04;;;;;;;713.33;565.40;;;15.50;99.90;;;;;;4970850;28;20198;-76
2022/09/17 00:10:32;;;;;;;706.83;542.17;;;15.60;99.90;;;;;;4975669;28;20213;-76
2022/09/17 00:12:58;;;;;;;715.20;566.30;;;15.50;99.90;;;;;;4963742;28;20673;-76
2022/09/17 00:15:25;;;;;;;710.88;545.88;;;15.50;99.90;;;;;;4965753;28;20250;-77
2022/09/17 00:17:56;;;;;;;708.50;538.55;;;15.50;99.90;;;;;;4969604;28;20242;-77
2022/09/17 00:20:23;;;;;;;713.30;565.75;;;15.50;99.90;;;;;;4965673;28;20200;-77
2022/09/17 00:22:49;;;;;;;713.67;564.28;;;15.50;99.90;;;;;;4968910;28;20609;-77
2022/09/17 00:25:16;;;;;;;712.42;570.78;;;15.40;99.90;;;;;;4970762;28;20202;-76
2022/09/17 00:27:43;;;;;;;706.90;535.75;;;15.40;99.90;;;;;;4966026;28;20195;-77
2022/09/17 00:30:11;;;;;;;708.88;543.45;;;15.50;99.90;;;;;;4967086;28;20202;-76
2022/09/17 00:32:38;;;;;;;711.92;566.50;;;15.50;99.90;;;;;;4959665;28;20212;-77
2022/09/17 00:35:07;;;;;;;705.95;533.60;;;15.40;99.90;;;;;;4964849;28;20237;-77
2022/09/17 00:37:34;;;;;;;703.33;523.80;;;15.40;99.90;;;;;;4962233;28;20550;-77
2022/09/17 00:40:01;;;;;;;711.05;557.38;;;15.40;99.90;;;;;;4957625;28;20190;-77
2022/09/17 00:42:27;;;;;;;705.70;534.63;;;15.40;99.90;;;;;;4963044;28;20223;-78
2022/09/17 00:44:56;;;;;;;709.53;556.50;;;15.40;99.90;;;;;;4968448;28;20198;-78
2022/09/17 00:47:28;;;;;;;710.97;556.58;;;15.40;99.90;;;;;;4958922;28;20200;-77
2022/09/17 00:49:59;;;;;;;707.45;548.40;;;15.40;99.90;;;;;;4967330;28;20202;-77
2022/09/17 00:52:31;;;;;;;710.30;551.78;;;15.40;99.90;;;;;;4967836;28;20206;-77
2022/09/17 00:55:05;;;;;;;710.72;552.50;;;15.40;99.90;;;;;;4968813;28;20187;-77
2022/09/17 00:57:32;;;;;;;710.30;564.95;;;15.40;99.90;;;;;;4960749;28;20581;-77
2022/09/17 00:59:59;;;;;;;706.78;535.75;;;15.40;99.90;;;;;;4960893;28;20203;-77
2022/09/17 01:02:26;;;;;;;711.90;552.63;;;15.40;99.90;;;;;;4968707;28;20225;-76
2022/09/17 01:04:53;;;;;;;707.28;544.08;;;15.40;99.90;;;;;;4974424;28;20194;-76
2022/09/17 01:07:35;;;;;;;704.25;530.50;;;15.40;99.90;;;;;;4974361;28;20207;-76
2022/09/17 01:10:11;;;;;;;706.15;553.45;;;15.30;99.90;;;;;;4967555;28;20198;-76
2022/09/17 01:12:57;;;;;;;701.22;526.50;;;15.30;99.90;;;;;;4976995;28;20607;-76
2022/09/17 01:15:33;;;;;;;704.00;529.50;;;15.30;99.90;;;;;;4966643;28;20209;-76
2022/09/17 01:18:11;;;;;;;704.42;528.38;;;15.30;99.90;;;;;;4960662;28;20237;-76
2022/09/17 01:21:10;;;;;;;702.53;524.15;;;15.30;99.90;;;;;;4962827;28;20202;-76
2022/09/17 01:24:19;;;;;;;707.00;539.42;;;15.30;99.90;;;;;;4963880;28;20204;-76
2022/09/17 01:27:16;;;;;;;706.45;543.63;;;15.30;99.90;;;;;;4929444;29;20212;-75
2022/09/17 01:30:03;;;;;;;701.88;512.80;;;15.20;99.90;;;;;;4965947;28;20245;-76
2022/09/17 01:32:36;;;;;;;704.13;529.22;;;15.30;99.90;;;;;;4967903;28;20465;-76
2022/09/17 01:35:11;;;;;;;708.38;547.63;;;15.30;99.90;;;;;;4966888;28;20256;-76
2022/09/17 01:37:44;;;;;;;706.67;548.00;;;15.30;99.90;;;;;;4981216;28;20202;-76
2022/09/17 01:40:18;;;;;;;708.05;549.13;;;15.20;99.90;;;;;;4974139;28;20565;-76
2022/09/17 01:42:54;;;;;;;706.35;543.85;;;15.20;99.90;;;;;;4969034;28;20264;-76
2022/09/17 01:45:27;;;;;;;700.92;515.55;;;15.20;99.90;;;;;;4975464;28;20646;-76
2022/09/17 01:48:02;;;;;;;705.38;535.67;;;15.20;99.90;;;;;;4966795;28;20204;-77
2022/09/17 01:50:36;;;;;;;700.88;518.38;;;15.20;99.90;;;;;;4960083;28;20269;-76
2022/09/17 01:53:04;;;;;;;706.50;545.67;;;15.20;99.90;;;;;;4967891;28;20197;-77
2022/09/17 01:55:35;;;;;;;699.63;505.58;;;15.10;99.90;;;;;;4976794;28;20194;-76
2022/09/17 01:58:07;;;;;;;701.95;519.25;;;15.10;99.90;;;;;;4972792;28;20201;-75
2022/09/17 02:00:35;;;;;;;703.67;541.15;;;15.10;99.90;;;;;;4965072;28;20717;-77
2022/09/17 02:03:10;;;;;;;697.05;517.80;;;15.10;99.90;;;;;;4963048;28;20589;-77
2022/09/17 02:05:41;;;;;;;708.80;543.95;;;15.10;99.90;;;;;;4994135;28;20197;-77
2022/09/17 02:08:11;;;;;;;700.20;519.60;;;15.10;99.90;;;;;;4984441;28;20594;-76
2022/09/17 02:10:43;;;;;;;705.63;540.80;;;15.10;99.90;;;;;;4978577;28;20256;-76
2022/09/17 02:13:14;;;;;;;709.60;543.65;;;15.10;99.90;;;;;;4971665;28;20198;-76
2022/09/17 02:15:46;;;;;;;705.35;535.10;;;15.10;99.90;;;;;;4961562;28;20198;-75
2022/09/17 02:18:22;;;;;;;701.42;509.85;;;15.00;99.90;;;;;;4957416;28;20229;-76
2022/09/17 02:20:56;;;;;;;694.38;490.77;;;15.00;99.90;;;;;;4972479;28;20280;-77
2022/09/17 02:23:28;;;;;;;700.53;519.10;;;15.00;99.90;;;;;;4972011;28;20247;-76
2022/09/17 02:26:01;;;;;;;698.55;499.38;;;15.00;99.90;;;;;;4977464;28;20203;-76
2022/09/17 02:28:34;;;;;;;704.10;533.97;;;15.00;99.90;;;;;;4974621;28;20246;-76
2022/09/17 02:31:00;;;;;;;705.92;541.90;;;15.00;99.90;;;;;;4962844;28;20201;-76
2022/09/17 02:33:31;;;;;;;701.22;511.48;;;15.00;99.90;;;;;;4964572;28;20206;-77
2022/09/17 02:35:58;;;;;;;696.17;498.00;;;15.00;99.90;;;;;;4960962;28;20194;-77
2022/09/17 02:38:27;;;;;;;694.35;502.23;;;15.00;99.90;;;;;;4972479;28;20685;-76
2022/09/17 02:40:58;;;;;;;700.08;527.38;;;15.00;99.90;;;;;;4973013;28;20197;-76
2022/09/17 02:43:34;;;;;;;696.38;502.88;;;15.00;99.90;;;;;;4964331;28;20222;-76
2022/09/17 02:46:15;;;;;;;696.22;500.17;;;15.00;99.90;;;;;;4958728;28;20205;-77
2022/09/17 02:49:10;;;;;;;696.55;498.45;;;14.90;99.90;;;;;;4962432;28;20198;-77
2022/09/17 02:51:44;;;;;;;696.13;502.27;;;14.90;99.90;;;;;;4964154;28;20252;-75
2022/09/17 02:54:21;;;;;;;697.55;501.15;;;14.90;99.90;;;;;;4973259;28;20763;-75
2022/09/17 02:56:54;;;;;;;702.50;514.60;;;14.90;99.90;;;;;;4962215;28;20687;-77
2022/09/17 02:59:25;;;;;;;696.13;495.70;;;14.90;99.90;;;;;;4959496;28;20527;-76
2022/09/17 03:01:56;;;;;;;694.03;484.00;;;14.90;99.90;;;;;;4965710;28;20216;-75
2022/09/17 03:04:27;;;;;;;692.53;485.13;;;14.90;99.90;;;;;;4973324;28;20554;-75
2022/09/17 03:06:54;;;;;;;702.22;518.00;;;14.90;99.90;;;;;;4981381;28;20253;-78
2022/09/17 03:09:21;;;;;;;693.10;488.70;;;14.90;99.90;;;;;;4978918;28;20202;-76
2022/09/17 03:11:48;;;;;;;697.42;501.08;;;14.90;99.90;;;;;;4967303;28;20264;-75
2022/09/17 03:14:14;;;;;;;698.53;510.58;;;14.80;99.90;;;;;;4966658;28;20206;-75
2022/09/17 03:16:41;;;;;;;701.30;518.05;;;14.80;99.90;;;;;;4969574;28;20217;-76
2022/09/17 03:19:08;;;;;;;695.67;501.25;;;14.80;99.90;;;;;;4972999;28;20264;-75
2022/09/17 03:21:36;;;;;;;698.83;501.42;;;14.80;99.90;;;;;;4972003;28;20198;-76
2022/09/17 03:24:03;;;;;;;705.00;535.70;;;14.80;99.90;;;;;;4969133;28;20194;-75
2022/09/17 03:26:29;;;;;;;703.25;525.22;;;14.80;99.90;;;;;;4969740;28;20202;-75
2022/09/17 03:28:57;;;;;;;703.28;522.85;;;14.80;99.90;;;;;;4966439;28;20194;-75
2022/09/17 03:31:24;;;;;;;702.67;516.85;;;14.80;99.90;;;;;;4958958;28;20201;-75
2022/09/17 03:33:50;;;;;;;701.45;511.17;;;14.80;99.90;;;;;;4960294;28;20695;-75
2022/09/17 03:36:17;;;;;;;696.97;498.77;;;14.80;99.90;;;;;;4975112;28;20194;-76
2022/09/17 03:38:45;;;;;;;705.75;529.05;;;14.80;99.90;;;;;;4970677;28;20256;-75
2022/09/17 03:41:12;;;;;;;702.40;505.48;;;14.80;99.90;;;;;;4972460;28;20684;-75
2022/09/17 03:43:39;;;;;;;701.75;517.38;;;14.80;99.90;;;;;;4960544;28;20257;-75
2022/09/17 03:46:06;;;;;;;694.38;485.08;;;14.70;99.90;;;;;;4957663;28;20225;-75
2022/09/17 03:48:35;;;;;;;700.72;507.02;;;14.70;99.90;;;;;;4976827;28;20200;-75
2022/09/17 03:51:02;;;;;;;704.45;526.72;;;14.70;99.90;;;;;;4965855;28;20199;-75
2022/09/17 03:53:29;;;;;;;702.63;508.50;;;14.70;99.90;;;;;;4960412;28;20201;-75
2022/09/17 03:55:59;;;;;;;698.72;504.77;;;14.70;99.90;;;;;;4972391;28;20205;-76
2022/09/17 03:58:26;;;;;;;702.75;517.42;;;14.70;99.90;;;;;;4963496;28;20297;-75
2022/09/17 04:00:54;;;;;;;707.08;535.55;;;14.70;99.90;;;;;;4959512;28;20265;-76
2022/09/17 04:03:21;;;;;;;699.65;495.15;;;14.70;99.90;;;;;;4960414;28;20221;-75
2022/09/17 04:05:48;;;;;;;699.10;496.90;;;14.70;99.90;;;;;;4983595;28;20193;-75
2022/09/17 04:08:15;;;;;;;694.50;488.33;;;14.60;99.90;;;;;;4970957;28;20197;-75
2022/09/17 04:10:41;;;;;;;700.03;501.05;;;14.60;99.90;;;;;;4967579;28;20209;-75
2022/09/17 04:13:10;;;;;;;699.08;505.23;;;14.60;99.90;;;;;;4962928;28;20265;-75
2022/09/17 04:15:37;;;;;;;703.22;508.52;;;14.60;99.90;;;;;;4964061;28;20194;-76
2022/09/17 04:18:04;;;;;;;696.85;489.35;;;14.60;99.90;;;;;;4974962;28;20228;-75
2022/09/17 04:20:31;;;;;;;700.15;507.67;;;14.60;99.90;;;;;;4975028;28;20205;-75
2022/09/17 04:22:58;;;;;;;703.13;522.22;;;14.60;99.90;;;;;;4976810;28;20217;-75
2022/09/17 04:25:24;;;;;;;698.42;498.17;;;14.60;99.90;;;;;;4973048;28;20201;-76
2022/09/17 04:27:51;;;;;;;698.33;488.17;;;14.60;99.90;;;;;;4966882;28;20201;-76
2022/09/17 04:30:19;;;;;;;695.65;483.75;;;14.60;99.90;;;;;;4963684;28;20209;-76
2022/09/17 04:32:46;;;;;;;697.05;496.02;;;14.60;99.90;;;;;;4962402;28;20206;-76
2022/09/17 04:35:13;;;;;;;695.22;495.25;;;14.60;99.90;;;;;;4971891;28;20193;-76
2022/09/17 04:37:40;;;;;;;693.58;481.65;;;14.60;99.90;;;;;;4970965;28;20558;-76
2022/09/17 04:40:08;;;;;;;702.47;517.78;;;14.50;99.90;;;;;;4973835;28;20189;-76
2022/09/17 04:42:35;;;;;;;694.65;489.98;;;14.60;99.90;;;;;;4971339;28;20224;-76
2022/09/17 04:45:01;;;;;;;704.47;527.05;;;14.50;99.90;;;;;;4974246;28;20206;-76
2022/09/17 04:47:29;;;;;;;700.40;511.67;;;14.60;99.90;;;;;;4966263;28;20189;-76
2022/09/17 04:49:56;;;;;;;697.80;489.75;;;14.60;99.90;;;;;;4973851;28;20197;-76
2022/09/17 04:52:23;;;;;;;700.55;511.90;;;14.50;99.90;;;;;;4989089;28;20201;-75
2022/09/17 04:54:49;;;;;;;700.53;520.53;;;14.60;99.90;;;;;;4973921;28;20197;-76
2022/09/17 04:57:16;;;;;;;698.60;500.23;;;14.50;99.90;;;;;;4973447;28;20280;-76
2022/09/17 04:59:42;;;;;;;700.03;507.63;;;14.50;99.90;;;;;;4970649;28;20281;-77
2022/09/17 05:02:09;;;;;;;701.40;515.72;;;14.50;99.90;;;;;;4973523;28;20194;-77
2022/09/17 05:04:37;;;;;;;701.00;509.95;;;14.50;99.90;;;;;;4975181;28;20201;-76
2022/09/17 05:07:04;;;;;;;696.65;481.17;;;14.50;99.90;;;;;;4973751;28;20201;-76
2022/09/17 05:09:31;;;;;;;695.90;482.25;;;14.50;99.90;;;;;;4979151;28;20224;-76
2022/09/17 05:11:57;;;;;;;699.10;502.05;;;14.50;99.90;;;;;;4967581;28;20397;-76
2022/09/17 05:14:24;;;;;;;705.17;506.45;;;14.50;99.90;;;;;;4977520;28;20260;-76
2022/09/17 05:16:51;;;;;;;701.28;511.88;;;14.50;99.90;;;;;;4971480;28;20226;-75
2022/09/17 05:19:17;;;;;;;703.78;516.53;;;14.50;99.90;;;;;;4960021;28;20629;-76
2022/09/17 05:21:45;;;;;;;707.33;515.75;;;14.50;99.90;;;;;;4956686;28;20736;-76
2022/09/17 05:24:12;;;;;;;705.53;520.25;;;14.50;99.90;;;;;;4975913;28;20229;-77
2022/09/17 05:26:39;;;;;;;706.78;511.17;;;14.50;99.90;;;;;;4964380;28;20256;-76
2022/09/17 05:29:06;;;;;;;708.22;507.75;;;14.50;99.90;;;;;;4970062;28;20209;-76
2022/09/17 05:31:32;;;;;;;702.83;510.45;;;14.50;99.90;;;;;;4969007;28;20209;-76
2022/09/17 05:33:59;;;;;;;702.72;515.28;;;14.50;99.90;;;;;;4963975;28;20256;-76
2022/09/17 05:36:25;;;;;;;703.42;507.50;;;14.50;99.90;;;;;;4973425;28;20198;-76
2022/09/17 05:38:53;;;;;;;697.53;475.33;;;14.50;99.90;;;;;;4981572;28;20564;-76
2022/09/17 05:41:23;;;;;;;705.80;507.08;;;14.50;99.90;;;;;;4967422;28;20198;-76
2022/09/17 05:43:50;;;;;;;698.72;488.10;;;14.40;99.90;;;;;;4966016;28;20269;-76
2022/09/17 05:46:16;;;;;;;706.03;511.77;;;14.50;99.90;;;;;;4970228;28;20197;-76
2022/09/17 05:48:43;;;;;;;705.13;510.45;;;14.50;99.90;;;;;;4964704;28;20602;-76
2022/09/17 05:51:10;;;;;;;703.67;508.52;;;14.50;99.90;;;;;;4971959;28;20194;-75
2022/09/17 05:53:37;;;;;;;697.08;480.95;;;14.50;99.90;;;;;;4981130;28;20232;-76
2022/09/17 05:56:05;;;;;;;697.42;483.35;;;14.50;99.90;;;;;;4969981;28;20198;-75
2022/09/17 05:58:33;;;;;;;699.03;486.90;;;14.60;99.90;;;;;;4962503;28;20199;-76
2022/09/17 06:01:01;;;;;;;703.35;511.70;;;14.60;99.90;;;;;;4963791;28;20200;-76
2022/09/17 06:03:27;;;;;;;705.10;513.90;;;14.70;99.90;;;;;;4968805;28;20225;-75
2022/09/17 06:05:57;;;;;;;705.80;522.25;;;14.80;99.90;;;;;;4966736;28;20195;-76
2022/09/17 06:08:24;;;;;;;701.95;496.42;;;14.90;99.90;;;;;;4974732;28;20225;-75
2022/09/17 06:10:51;;;;;;;708.35;524.72;;;15.10;99.90;;;;;;4964134;28;20194;-75
2022/09/17 06:13:20;;;;;;;706.83;517.53;;;15.20;99.90;;;;;;4963308;28;20206;-75
2022/09/17 06:15:50;;;;;;;711.28;542.53;;;15.40;99.90;;;;;;4970126;28;20203;-75
2022/09/17 06:18:16;;;;;;;714.72;555.30;;;15.50;99.90;;;;;;4970539;28;20291;-75
2022/09/17 06:20:43;;;;;;;713.88;557.47;;;15.60;99.90;;;;;;4993886;28;20274;-74
2022/09/17 06:23:10;;;;;;;714.40;566.72;;;15.60;99.90;;;;;;4978424;28;20244;-74
2022/09/17 06:25:36;;;;;;;711.90;549.95;;;15.50;99.90;;;;;;4970490;28;20198;-75
2022/09/17 06:28:03;;;;;;;711.72;551.63;;;15.50;99.90;;;;;;4961691;28;20194;-75
2022/09/17 06:30:31;;;;;;;711.80;554.40;;;15.40;99.90;;;;;;4975359;28;20199;-75
2022/09/17 06:33:00;;;;;;;713.75;557.67;;;15.30;99.90;;;;;;4970001;28;20211;-74
2022/09/17 06:35:26;;;;;;;715.25;556.38;;;15.30;99.90;;;;;;4969594;28;20286;-75
2022/09/17 06:37:53;;;;;;;709.38;551.15;;;15.30;99.90;;;;;;4973300;28;20207;-75
2022/09/17 06:40:22;;;;;;;707.60;535.53;;;15.30;99.90;;;;;;4972458;28;20228;-74
2022/09/17 06:42:48;;;;;;;707.58;524.40;;;15.30;99.90;;;;;;4976456;28;20724;-75
2022/09/17 06:45:15;;;;;;;709.10;518.65;;;15.30;99.90;;;;;;4972333;28;20252;-75
2022/09/17 06:47:43;;;;;;;708.15;533.88;;;15.20;99.90;;;;;;4969731;28;20255;-76
2022/09/17 06:50:10;;;;;;;709.90;537.83;;;15.20;99.90;;;;;;4972876;28;20202;-76
2022/09/17 06:52:37;;;;;;;707.10;530.25;;;15.10;99.90;;;;;;4973545;28;20248;-75
2022/09/17 06:55:04;;;;;;;707.65;539.83;;;15.10;99.90;;;;;;4971793;28;20209;-76
2022/09/17 06:57:31;;;;;;;711.75;545.97;;;15.10;99.90;;;;;;4965316;28;20362;-75
2022/09/17 06:59:57;;;;;;;710.90;541.08;;;15.10;99.90;;;;;;4960865;28;20194;-75
2022/09/17 07:02:24;;;;;;;709.08;538.70;;;15.10;99.90;;;;;;4965628;28;20195;-75
2022/09/17 07:04:54;;;;;;;708.85;536.45;;;15.10;99.90;;;;;;4981521;28;20228;-75
2022/09/17 07:07:20;;;;;;;704.05;508.23;;;15.20;99.90;;;;;;4971589;28;20202;-75
2022/09/17 07:09:47;;;;;;;713.20;557.10;;;15.40;99.90;;;;;;4970372;28;20199;-75
2022/09/17 07:12:14;;;;;;;718.15;562.05;;;15.60;99.90;;;;;;4977354;28;20272;-75
2022/09/17 07:14:40;;;;;;;714.30;560.70;;;15.80;99.90;;;;;;4957489;28;20206;-75
2022/09/17 07:17:07;;;;;;;720.92;589.28;;;16.00;99.90;;;;;;4961308;28;20234;-76
2022/09/17 07:19:34;;;;;;;724.28;599.70;;;16.20;99.90;;;;;;4980018;28;20204;-75
2022/09/17 07:22:02;;;;;;;730.40;613.90;;;16.40;99.90;;;;;;4972891;28;20656;-75
2022/09/17 07:24:28;;;;;;;725.83;606.28;;;16.50;99.90;;;;;;4965867;28;20225;-76
2022/09/17 07:26:55;;;;;;;727.85;624.38;;;16.70;99.90;;;;;;4965601;28;20200;-75
2022/09/17 07:29:25;;;;;;;729.33;633.13;;;16.80;99.90;;;;;;4963915;28;20685;-75
2022/09/17 07:31:51;;;;;;;731.10;637.53;;;16.90;99.90;;;;;;4965111;28;20199;-76
2022/09/17 07:34:18;;;;;;;732.10;645.03;;;17.00;99.90;;;;;;4961672;28;20650;-75
2022/09/17 07:36:45;;;;;;;724.60;623.53;;;17.10;99.90;;;;;;4972512;28;20300;-75
2022/09/17 07:39:13;;;;;;;747.15;665.53;;;17.20;99.90;;;;;;4969257;28;20209;-75
2022/09/17 07:41:40;;;;;;;727.75;638.40;;;17.30;99.90;;;;;;4969552;28;20210;-75
2022/09/17 07:44:08;;;;;;;732.80;648.20;;;17.30;99.90;;;;;;4967444;28;20294;-74
2022/09/17 07:46:35;;;;;;;740.47;658.33;;;17.40;99.90;;;;;;4966739;28;20258;-75
2022/09/17 07:49:02;;;;;;;737.83;657.08;;;17.40;99.90;;;;;;4963559;28;20681;-76
2022/09/17 07:51:29;;;;;;;753.53;672.10;;;17.50;99.90;;;;;;4967057;28;20205;-75
2022/09/17 07:53:57;;;;;;;744.97;663.95;;;17.50;99.90;;;;;;4979877;28;20699;-74
2022/09/17 07:56:26;;;;;;;751.50;670.25;;;17.40;99.90;;;;;;4963714;28;20286;-78
2022/09/17 07:58:53;;;;;;;726.70;643.15;;;17.30;99.90;;;;;;4964916;28;20616;-77
2022/09/17 08:01:21;;;;;;;736.67;655.03;;;17.20;99.90;;;;;;4959800;28;20264;-77
2022/09/17 08:03:49;;;;;;;736.25;654.88;;;17.30;99.90;;;;;;4961356;28;20240;-76
2022/09/17 08:06:18;;;;;;;728.92;647.35;;;17.30;99.90;;;;;;4989722;28;20193;-77
2022/09/17 08:08:45;;;;;;;740.53;659.55;;;17.40;99.90;;;;;;4967291;28;20194;-76
2022/09/17 08:11:13;;;;;;;750.58;669.53;;;17.50;99.90;;;;;;4974635;28;20214;-79
2022/09/17 08:13:41;;;;;;;771.08;688.90;;;17.50;99.90;;;;;;4960153;28;20206;-78
2022/09/17 08:16:11;;;;;;;763.97;682.03;;;17.60;99.90;;;;;;4967155;28;20226;-79
2022/09/17 08:18:39;;;;;;;755.15;673.35;;;17.60;99.90;;;;;;4959475;28;20617;-79
2022/09/17 08:21:07;;;;;;;760.08;678.38;;;17.70;99.90;;;;;;4968031;28;20201;-77
2022/09/17 08:23:35;;;;;;;775.15;693.25;;;17.70;99.90;;;;;;4956318;28;20289;-77
2022/09/17 08:26:03;;;;;;;759.35;677.67;;;17.70;99.90;;;;;;4975730;28;20201;-79
2022/09/17 08:28:31;;;;;;;761.35;679.85;;;17.70;99.90;;;;;;4970431;28;20198;-77
2022/09/17 08:31:03;;;;;;;761.42;679.63;;;17.70;99.90;;;;;;4958838;28;20198;-79
2022/09/17 08:33:31;;;;;;;757.30;675.70;;;17.70;99.90;;;;;;4971064;28;20197;-78
2022/09/17 08:35:58;;;;;;;781.65;699.10;;;17.70;99.90;;;;;;4969064;28;20218;-77
2022/09/17 08:38:25;;;;;;;783.85;701.47;;;17.80;99.90;;;;;;4971210;28;20199;-77
2022/09/17 08:41:04;;;;;;;778.63;696.65;;;17.80;99.90;;;;;;4971299;28;20237;-77
2022/09/17 08:43:35;;;;;;;767.90;685.70;;;17.80;99.90;;;;;;4966120;28;20308;-77
2022/09/17 08:46:03;;;;;;;784.00;701.60;;;17.80;99.90;;;;;;4961112;28;20199;-77
2022/09/17 08:48:39;;;;;;;779.97;697.90;;;17.80;99.90;;;;;;4964935;28;20221;-78
2022/09/17 08:51:15;;;;;;;790.80;708.20;;;17.80;99.90;;;;;;4969486;28;20635;-78
2022/09/17 08:53:57;;;;;;;769.17;687.08;;;17.80;99.90;;;;;;4976896;28;20568;-78
2022/09/17 08:56:26;;;;;;;771.33;688.40;;;17.80;99.90;;;;;;4967065;28;20687;-79
2022/09/17 08:59:07;;;;;;;762.63;680.88;;;17.80;99.90;;;;;;4972614;28;20731;-76
2022/09/17 09:01:45;;;;;;;765.38;683.58;;;17.80;99.90;;;;;;4959100;28;20550;-78
2022/09/17 09:04:35;;;;;;;761.25;679.35;;;17.70;99.90;;;;;;4965749;28;20213;-77
2022/09/17 09:07:06;;;;;;;764.53;682.63;;;17.60;99.90;;;;;;4975854;28;20252;-77
2022/09/17 09:09:37;;;;;;;759.50;677.15;;;17.60;99.90;;;;;;4958692;28;20203;-77
2022/09/17 09:12:11;;;;;;;751.65;670.00;;;17.50;99.90;;;;;;4978383;28;20624;-76
2022/09/17 09:14:47;;;;;;;751.58;670.03;;;17.40;99.90;;;;;;4978265;28;20189;-77
2022/09/17 09:17:18;;;;;;;763.53;681.03;;;17.40;99.90;;;;;;4962391;28;20233;-79
2022/09/17 09:19:46;;;;;;;757.25;675.20;;;17.40;99.90;;;;;;4957666;28;20840;-78
2022/09/17 09:22:36;;;;;;;745.17;663.33;;;17.30;99.90;;;;;;4965698;28;20205;-77
2022/09/17 09:25:12;;;;;;;729.40;644.85;;;17.30;99.90;;;;;;4967521;28;20276;-78
2022/09/17 09:27:45;;;;;;;733.85;647.75;;;17.20;99.90;;;;;;4975235;28;20679;-77
2022/09/17 09:30:15;;;;;;;738.33;655.45;;;17.20;99.90;;;;;;4965804;28;20265;-77
2022/09/17 09:32:56;;;;;;;727.75;638.55;;;17.10;99.90;;;;;;4970390;28;20202;-77
2022/09/17 09:35:26;;;;;;;735.80;652.03;;;17.10;99.90;;;;;;4962834;28;20240;-77
2022/09/17 09:37:59;;;;;;;733.08;647.05;;;17.10;99.90;;;;;;4967285;28;20198;-78
2022/09/17 09:40:36;;;;;;;738.67;654.08;;;17.20;99.90;;;;;;4967844;28;20201;-77
2022/09/17 09:43:14;;;;;;;732.88;648.10;;;17.20;99.90;;;;;;4968176;28;20655;-77
2022/09/17 09:46:07;;;;;;;740.28;657.70;;;17.20;99.90;;;;;;4964907;28;20240;-77
2022/09/17 09:48:44;;;;;;;743.30;659.92;;;17.30;99.90;;;;;;4961253;28;20209;-77
2022/09/17 09:51:20;;;;;;;753.80;671.67;;;17.30;99.90;;;;;;4967088;28;20664;-77
2022/09/17 09:54:03;;;;;;;739.95;654.30;;;17.30;99.90;;;;;;4961463;28;20234;-77
2022/09/17 09:56:43;;;;;;;748.22;666.35;;;17.30;99.90;;;;;;4966187;28;20499;-76
2022/09/17 09:59:12;;;;;;;753.15;670.97;;;17.20;99.90;;;;;;4963410;28;20280;-75
2022/09/17 10:01:41;;;;;;;733.40;645.75;;;17.20;99.90;;;;;;4970557;28;20632;-78
2022/09/17 10:04:17;;;;;;;737.63;654.47;;;17.10;99.90;;;;;;4969147;28;20229;-78
2022/09/17 10:06:45;;;;;;;735.78;641.85;;;17.10;99.90;;;;;;4967326;28;20205;-78
2022/09/17 10:09:15;;;;;;;734.63;644.13;;;17.00;99.90;;;;;;4965408;28;20260;-78
2022/09/17 10:11:43;;;;;;;732.50;645.53;;;17.00;99.90;;;;;;4970661;28;20206;-76
2022/09/17 10:14:24;;;;;;;737.20;652.05;;;17.00;99.90;;;;;;4964358;28;20205;-76
2022/09/17 10:17:10;;;;;;;734.50;647.72;;;17.00;99.90;;;;;;4962362;28;20237;-76
2022/09/17 10:19:38;;;;;;;726.15;626.67;;;17.00;99.90;;;;;;4964408;28;20285;-77
2022/09/17 10:22:30;;;;;;;736.42;648.30;;;16.90;99.90;;;;;;4963806;28;20201;-77
2022/09/17 10:24:58;;;;;;;729.50;629.95;;;16.90;99.90;;;;;;4969248;28;20221;-77
2022/09/17 10:27:26;;;;;;;728.25;619.05;;;16.90;99.90;;;;;;4969231;28;20653;-75
2022/09/17 10:30:01;;;;;;;737.10;644.80;;;16.90;99.90;;;;;;4967770;28;20268;-77
2022/09/17 10:32:27;;;;;;;731.28;633.65;;;16.80;99.90;;;;;;4966787;28;20779;-75
2022/09/17 10:35:03;;;;;;;726.60;618.63;;;16.80;99.90;;;;;;4967392;28;20249;-77
2022/09/17 10:37:42;;;;;;;729.58;631.90;;;16.80;99.90;;;;;;4970260;28;20546;-76
2022/09/17 10:40:27;;;;;;;730.33;624.47;;;16.80;99.90;;;;;;4974173;28;20284;-80
2022/09/17 10:43:19;;;;;;;729.22;626.38;;;16.80;99.90;;;;;;4973746;28;20280;-81
2022/09/17 10:45:55;;;;;;;727.05;610.22;;;16.80;99.90;;;;;;4970892;28;20236;-77
2022/09/17 10:48:22;;;;;;;728.47;625.75;;;16.80;99.90;;;;;;4970282;28;20727;-77
2022/09/17 10:50:55;;;;;;;727.80;621.58;;;16.90;99.90;;;;;;4963833;28;20201;-75
2022/09/17 10:53:24;;;;;;;731.80;631.30;;;16.90;99.90;;;;;;4968082;28;20202;-75
2022/09/17 10:55:56;;;;;;;727.88;622.35;;;16.80;99.90;;;;;;4972024;28;20428;-79
2022/09/17 10:58:35;;;;;;;728.80;619.33;;;16.80;99.90;;;;;;4973141;28;20250;-80
2022/09/17 11:01:10;;;;;;;731.47;628.78;;;16.80;99.90;;;;;;4971043;28;20326;-80
2022/09/17 11:03:50;;;;;;;734.47;638.78;;;16.70;99.90;;;;;;4970348;28;20266;-78
2022/09/17 11:06:54;;;;;;;728.03;617.88;;;16.70;99.90;;;;;;4967381;28;20626;-82
2022/09/17 11:09:33;;;;;;;726.15;600.50;;;16.60;99.90;;;;;;4935914;28;20200;-78
2022/09/17 11:12:19;;;;;;;726.30;604.38;;;16.60;99.90;;;;;;4970235;28;20196;-82
2022/09/17 11:14:52;;;;;;;729.40;613.75;;;16.60;99.90;;;;;;4973095;28;20207;-82
2022/09/17 11:17:35;;;;;;;730.00;626.75;;;16.60;99.90;;;;;;4969221;28;20240;-82
2022/09/17 11:20:20;;;;;;;727.33;617.15;;;16.70;99.90;;;;;;4967057;28;20236;-80
2022/09/17 11:22:58;;;;;;;724.97;608.65;;;16.70;99.90;;;;;;4966701;28;20224;-79
2022/09/17 11:25:39;;;;;;;729.70;620.75;;;16.70;99.90;;;;;;4964212;28;20225;-77
2022/09/17 11:28:23;;;;;;;733.05;627.83;;;16.70;99.90;;;;;;4971649;28;20210;-77
2022/09/17 11:31:03;;;;;;;728.35;621.55;;;16.70;99.90;;;;;;4969788;28;20235;-83
2022/09/17 11:33:52;;;;;;;726.63;622.28;;;16.70;99.90;;;;;;4967529;28;20254;-76
2022/09/17 11:36:23;;;;;;;723.88;602.33;;;16.70;99.90;;;;;;4971795;28;20201;-77
2022/09/17 11:38:54;;;;;;;728.33;622.58;;;16.70;99.90;;;;;;4968088;28;20660;-78
2022/09/17 11:41:26;;;;;;;727.45;619.58;;;16.70;99.90;;;;;;4969689;28;20260;-76
2022/09/17 11:44:07;;;;;;;729.28;626.63;;;16.70;99.90;;;;;;4969497;28;20289;-77
2022/09/17 11:46:39;;;;;;;726.17;619.47;;;16.70;99.90;;;;;;4966541;28;20668;-77
2022/09/17 11:49:12;;;;;;;726.92;632.75;;;16.70;99.90;;;;;;4972159;28;20558;-77
2022/09/17 11:51:43;;;;;;;731.95;631.95;;;16.70;99.90;;;;;;4969054;28;20205;-76
2022/09/17 11:54:21;;;;;;;727.75;626.30;;;16.70;99.90;;;;;;4966128;28;20205;-80
2022/09/17 11:56:51;;;;;;;726.90;617.78;;;16.70;99.90;;;;;;4971976;28;20196;-79
2022/09/17 11:59:22;;;;;;;727.38;618.88;;;16.60;99.90;;;;;;4965894;28;20247;-81
2022/09/17 12:01:52;;;;;;;724.70;605.33;;;16.70;99.90;;;;;;4967518;28;20247;-78
2022/09/17 12:04:43;;;;;;;729.22;638.03;;;16.70;99.90;;;;;;4965761;28;20200;-77
2022/09/17 12:07:25;;;;;;;724.47;615.63;;;16.60;99.90;;;;;;4974543;28;20201;-77
2022/09/17 12:09:58;;;;;;;724.45;609.92;;;16.60;99.90;;;;;;4968881;28;20208;-76
2022/09/17 12:12:27;;;;;;;727.92;624.55;;;16.60;99.90;;;;;;4970995;28;20204;-80
2022/09/17 12:14:59;;;;;;;725.08;615.60;;;16.60;99.90;;;;;;4967135;28;20204;-79
2022/09/17 12:17:33;;;;;;;727.38;621.92;;;16.60;99.90;;;;;;4963732;28;20295;-77
2022/09/17 12:20:04;;;;;;;727.38;621.65;;;16.60;99.90;;;;;;4961580;28;20578;-76
2022/09/17 12:22:36;;;;;;;725.58;615.33;;;16.60;99.90;;;;;;4967599;28;20199;-77
2022/09/17 12:25:05;;;;;;;724.50;611.58;;;16.60;99.90;;;;;;4964847;28;20216;-77
2022/09/17 12:27:39;;;;;;;724.00;611.75;;;16.50;99.90;;;;;;4973433;28;20767;-76